sensor_id;sensor_type;location;lat;lon;timestamp;pressure;altitude;pressure_sealevel;temperature;humidity
69855;BME280;57146;48.140;16.304;2022-07-17T00:02:11;100176.31;;;19.77;48.15
69855;BME280;57146;48.140;16.304;2022-07-17T00:04:38;100166.75;;;19.76;48.52
69855;BME280;57146;48.140;16.304;2022-07-17T00:07:05;100171.63;;;19.74;48.31
69855;BME280;57146;48.140;16.304;2022-07-17T00:09:32;100172.53;;;19.78;47.94
69855;BME280;57146;48.140;16.304;2022-07-17T00:11:59;100172.00;;;19.73;47.77
69855;BME280;57146;48.140;16.304;2022-07-17T00:14:26;100178.00;;;19.70;47.79
69855;BME280;57146;48.140;16.304;2022-07-17T00:16:52;100174.22;;;19.71;47.41
69855;BME280;57146;48.140;16.304;2022-07-17T00:19:20;100176.00;;;19.67;47.52
69855;BME280;57146;48.140;16.304;2022-07-17T00:21:47;100170.25;;;19.65;47.90
69855;BME280;57146;48.140;16.304;2022-07-17T00:24:14;100179.00;;;19.53;48.22
69855;BME280;57146;48.140;16.304;2022-07-17T00:26:41;100165.81;;;19.44;48.63
69855;BME280;57146;48.140;16.304;2022-07-17T00:29:08;100175.16;;;19.38;48.82
69855;BME280;57146;48.140;16.304;2022-07-17T00:31:34;100174.94;;;19.31;48.76
69855;BME280;57146;48.140;16.304;2022-07-17T00:34:02;100180.94;;;19.28;48.78
69855;BME280;57146;48.140;16.304;2022-07-17T00:36:29;100177.50;;;19.27;48.52
69855;BME280;57146;48.140;16.304;2022-07-17T00:38:55;100181.75;;;19.28;48.13
69855;BME280;57146;48.140;16.304;2022-07-17T00:41:22;100173.94;;;19.23;48.88
69855;BME280;57146;48.140;16.304;2022-07-17T00:43:49;100173.53;;;19.21;48.64
69855;BME280;57146;48.140;16.304;2022-07-17T00:46:16;100182.63;;;19.20;48.69
69855;BME280;57146;48.140;16.304;2022-07-17T00:48:43;100181.06;;;19.19;48.81
69855;BME280;57146;48.140;16.304;2022-07-17T00:51:10;100181.06;;;19.19;48.70
69855;BME280;57146;48.140;16.304;2022-07-17T00:53:37;100185.75;;;19.22;47.79
69855;BME280;57146;48.140;16.304;2022-07-17T00:56:06;100178.41;;;19.19;47.86
69855;BME280;57146;48.140;16.304;2022-07-17T00:58:36;100183.53;;;19.12;48.24
69855;BME280;57146;48.140;16.304;2022-07-17T01:01:04;100177.72;;;19.10;48.44
69855;BME280;57146;48.140;16.304;2022-07-17T01:03:32;100187.53;;;19.06;48.55
69855;BME280;57146;48.140;16.304;2022-07-17T01:05:59;100186.63;;;19.02;48.68
69855;BME280;57146;48.140;16.304;2022-07-17T01:08:26;100184.09;;;18.93;48.79
69855;BME280;57146;48.140;16.304;2022-07-17T01:10:53;100189.19;;;18.86;49.27
69855;BME280;57146;48.140;16.304;2022-07-17T01:13:20;100189.09;;;18.82;49.08
69855;BME280;57146;48.140;16.304;2022-07-17T01:15:47;100190.41;;;18.76;49.40
69855;BME280;57146;48.140;16.304;2022-07-17T01:18:16;100199.53;;;18.75;49.34
69855;BME280;57146;48.140;16.304;2022-07-17T01:20:45;100195.94;;;18.71;49.78
69855;BME280;57146;48.140;16.304;2022-07-17T01:23:15;100197.50;;;18.72;49.55
69855;BME280;57146;48.140;16.304;2022-07-17T01:25:43;100196.47;;;18.64;49.89
69855;BME280;57146;48.140;16.304;2022-07-17T01:28:11;100201.81;;;18.64;49.94
69855;BME280;57146;48.140;16.304;2022-07-17T01:30:49;100189.78;;;18.58;50.54
69855;BME280;57146;48.140;16.304;2022-07-17T01:33:17;100201.78;;;18.52;50.89
69855;BME280;57146;48.140;16.304;2022-07-17T01:35:45;100200.22;;;18.51;50.23
69855;BME280;57146;48.140;16.304;2022-07-17T01:38:12;100200.41;;;18.46;50.22
69855;BME280;57146;48.140;16.304;2022-07-17T01:40:39;100198.44;;;18.43;50.20
69855;BME280;57146;48.140;16.304;2022-07-17T01:43:06;100206.75;;;18.41;49.86
69855;BME280;57146;48.140;16.304;2022-07-17T01:45:33;100203.63;;;18.39;50.49
69855;BME280;57146;48.140;16.304;2022-07-17T01:48:00;100198.97;;;18.36;50.10
69855;BME280;57146;48.140;16.304;2022-07-17T01:50:27;100209.81;;;18.31;50.21
69855;BME280;57146;48.140;16.304;2022-07-17T01:52:54;100202.34;;;18.25;51.11
69855;BME280;57146;48.140;16.304;2022-07-17T01:55:20;100201.66;;;18.15;50.95
69855;BME280;57146;48.140;16.304;2022-07-17T01:57:48;100199.41;;;18.05;51.07
69855;BME280;57146;48.140;16.304;2022-07-17T02:00:16;100195.56;;;18.15;50.65
69855;BME280;57146;48.140;16.304;2022-07-17T02:02:45;100195.22;;;18.16;50.68
69855;BME280;57146;48.140;16.304;2022-07-17T02:05:12;100204.22;;;18.12;50.91
69855;BME280;57146;48.140;16.304;2022-07-17T02:07:40;100194.19;;;18.09;50.87
69855;BME280;57146;48.140;16.304;2022-07-17T02:10:09;100197.97;;;18.08;50.12
69855;BME280;57146;48.140;16.304;2022-07-17T02:12:37;100204.34;;;17.94;51.16
69855;BME280;57146;48.140;16.304;2022-07-17T02:15:05;100205.84;;;17.83;52.31
69855;BME280;57146;48.140;16.304;2022-07-17T02:17:38;100212.09;;;17.87;51.70
69855;BME280;57146;48.140;16.304;2022-07-17T02:20:06;100211.31;;;17.87;52.10
69855;BME280;57146;48.140;16.304;2022-07-17T02:22:35;100209.16;;;17.80;51.96
69855;BME280;57146;48.140;16.304;2022-07-17T02:25:06;100215.13;;;17.77;52.32
69855;BME280;57146;48.140;16.304;2022-07-17T02:27:33;100221.06;;;17.74;52.53
69855;BME280;57146;48.140;16.304;2022-07-17T02:30:04;100221.31;;;17.60;52.74
69855;BME280;57146;48.140;16.304;2022-07-17T02:32:32;100220.09;;;17.58;53.10
69855;BME280;57146;48.140;16.304;2022-07-17T02:34:59;100227.16;;;17.54;53.15
69855;BME280;57146;48.140;16.304;2022-07-17T02:37:26;100217.31;;;17.54;53.26
69855;BME280;57146;48.140;16.304;2022-07-17T02:39:53;100221.69;;;17.50;53.06
69855;BME280;57146;48.140;16.304;2022-07-17T02:42:25;100232.19;;;17.46;53.33
69855;BME280;57146;48.140;16.304;2022-07-17T02:44:53;100220.63;;;17.42;53.64
69855;BME280;57146;48.140;16.304;2022-07-17T02:47:25;100229.25;;;17.39;53.98
69855;BME280;57146;48.140;16.304;2022-07-17T02:49:52;100218.81;;;17.34;54.30
69855;BME280;57146;48.140;16.304;2022-07-17T02:52:20;100221.66;;;17.29;54.15
69855;BME280;57146;48.140;16.304;2022-07-17T02:54:47;100222.19;;;17.14;54.80
69855;BME280;57146;48.140;16.304;2022-07-17T02:57:14;100226.44;;;17.15;54.93
69855;BME280;57146;48.140;16.304;2022-07-17T02:59:42;100221.59;;;17.08;55.74
69855;BME280;57146;48.140;16.304;2022-07-17T03:02:09;100223.78;;;17.15;54.92
69855;BME280;57146;48.140;16.304;2022-07-17T03:04:36;100224.06;;;17.13;54.91
69855;BME280;57146;48.140;16.304;2022-07-17T03:07:03;100222.81;;;17.11;55.19
69855;BME280;57146;48.140;16.304;2022-07-17T03:09:30;100227.28;;;16.98;55.29
69855;BME280;57146;48.140;16.304;2022-07-17T03:11:57;100225.28;;;16.86;56.06
69855;BME280;57146;48.140;16.304;2022-07-17T03:14:24;100222.97;;;16.76;56.28
69855;BME280;57146;48.140;16.304;2022-07-17T03:16:51;100230.19;;;16.75;56.48
69855;BME280;57146;48.140;16.304;2022-07-17T03:19:19;100226.88;;;16.70;56.98
69855;BME280;57146;48.140;16.304;2022-07-17T03:21:46;100234.69;;;16.66;57.29
69855;BME280;57146;48.140;16.304;2022-07-17T03:24:13;100232.50;;;16.60;56.81
69855;BME280;57146;48.140;16.304;2022-07-17T03:26:39;100237.50;;;16.61;56.70
69855;BME280;57146;48.140;16.304;2022-07-17T03:29:06;100231.41;;;16.61;56.56
69855;BME280;57146;48.140;16.304;2022-07-17T03:31:33;100234.84;;;16.61;56.82
69855;BME280;57146;48.140;16.304;2022-07-17T03:34:00;100234.69;;;16.58;56.70
69855;BME280;57146;48.140;16.304;2022-07-17T03:36:27;100241.59;;;16.59;57.08
69855;BME280;57146;48.140;16.304;2022-07-17T03:38:54;100244.25;;;16.59;56.96
69855;BME280;57146;48.140;16.304;2022-07-17T03:41:21;100240.66;;;16.55;57.15
69855;BME280;57146;48.140;16.304;2022-07-17T03:43:47;100243.63;;;16.62;57.10
69855;BME280;57146;48.140;16.304;2022-07-17T03:46:14;100247.84;;;16.63;57.08
69855;BME280;57146;48.140;16.304;2022-07-17T03:48:42;100248.75;;;16.67;56.91
69855;BME280;57146;48.140;16.304;2022-07-17T03:51:08;100252.66;;;16.61;57.68
69855;BME280;57146;48.140;16.304;2022-07-17T03:53:35;100247.69;;;16.59;57.70
69855;BME280;57146;48.140;16.304;2022-07-17T03:56:02;100251.44;;;16.58;57.54
69855;BME280;57146;48.140;16.304;2022-07-17T03:58:29;100259.72;;;16.57;58.11
69855;BME280;57146;48.140;16.304;2022-07-17T04:00:56;100240.50;;;16.60;57.54
69855;BME280;57146;48.140;16.304;2022-07-17T04:03:23;100254.69;;;16.64;57.14
69855;BME280;57146;48.140;16.304;2022-07-17T04:05:50;100248.94;;;16.62;57.27
69855;BME280;57146;48.140;16.304;2022-07-17T04:08:17;100246.13;;;16.58;58.38
69855;BME280;57146;48.140;16.304;2022-07-17T04:10:44;100247.69;;;16.59;57.97
69855;BME280;57146;48.140;16.304;2022-07-17T04:13:11;100259.09;;;16.60;58.54
69855;BME280;57146;48.140;16.304;2022-07-17T04:15:38;100252.38;;;16.62;58.08
69855;BME280;57146;48.140;16.304;2022-07-17T04:18:05;100255.47;;;16.64;58.01
69855;BME280;57146;48.140;16.304;2022-07-17T04:20:32;100257.38;;;16.64;58.13
69855;BME280;57146;48.140;16.304;2022-07-17T04:22:59;100256.75;;;16.67;58.32
69855;BME280;57146;48.140;16.304;2022-07-17T04:25:26;100268.94;;;16.68;58.76
69855;BME280;57146;48.140;16.304;2022-07-17T04:27:52;100265.81;;;16.74;58.60
69855;BME280;57146;48.140;16.304;2022-07-17T04:30:19;100262.53;;;16.78;57.86
69855;BME280;57146;48.140;16.304;2022-07-17T04:32:46;100261.22;;;16.92;56.42
69855;BME280;57146;48.140;16.304;2022-07-17T04:35:13;100268.28;;;16.97;55.90
69855;BME280;57146;48.140;16.304;2022-07-17T04:37:40;100270.91;;;17.06;55.97
69855;BME280;57146;48.140;16.304;2022-07-17T04:40:07;100266.53;;;17.01;55.13
69855;BME280;57146;48.140;16.304;2022-07-17T04:42:34;100266.69;;;17.05;54.08
69855;BME280;57146;48.140;16.304;2022-07-17T04:45:01;100268.56;;;17.04;54.41
69855;BME280;57146;48.140;16.304;2022-07-17T04:47:28;100265.25;;;17.07;54.29
69855;BME280;57146;48.140;16.304;2022-07-17T04:49:56;100269.50;;;17.08;54.46
69855;BME280;57146;48.140;16.304;2022-07-17T04:52:23;100271.97;;;17.13;53.87
69855;BME280;57146;48.140;16.304;2022-07-17T04:54:50;100264.13;;;17.17;54.29
69855;BME280;57146;48.140;16.304;2022-07-17T04:57:17;100275.25;;;17.19;54.29
69855;BME280;57146;48.140;16.304;2022-07-17T04:59:43;100269.59;;;17.20;53.78
69855;BME280;57146;48.140;16.304;2022-07-17T05:02:10;100267.06;;;17.24;54.15
69855;BME280;57146;48.140;16.304;2022-07-17T05:04:38;100272.72;;;17.22;54.18
69855;BME280;57146;48.140;16.304;2022-07-17T05:07:04;100268.75;;;17.29;54.15
69855;BME280;57146;48.140;16.304;2022-07-17T05:09:31;100272.66;;;17.31;53.84
69855;BME280;57146;48.140;16.304;2022-07-17T05:11:58;100273.59;;;17.35;54.47
69855;BME280;57146;48.140;16.304;2022-07-17T05:14:25;100267.00;;;17.41;53.41
69855;BME280;57146;48.140;16.304;2022-07-17T05:16:52;100274.16;;;17.50;53.57
69855;BME280;57146;48.140;16.304;2022-07-17T05:19:19;100275.88;;;17.54;53.34
69855;BME280;57146;48.140;16.304;2022-07-17T05:21:46;100278.84;;;17.53;53.31
69855;BME280;57146;48.140;16.304;2022-07-17T05:24:12;100279.44;;;17.58;53.26
69855;BME280;57146;48.140;16.304;2022-07-17T05:26:39;100276.59;;;17.63;53.44
69855;BME280;57146;48.140;16.304;2022-07-17T05:29:06;100282.03;;;17.67;52.99
69855;BME280;57146;48.140;16.304;2022-07-17T05:31:33;100276.28;;;17.65;52.99
69855;BME280;57146;48.140;16.304;2022-07-17T05:34:00;100272.16;;;17.67;53.57
69855;BME280;57146;48.140;16.304;2022-07-17T05:36:27;100274.97;;;17.71;53.00
69855;BME280;57146;48.140;16.304;2022-07-17T05:38:54;100286.72;;;17.79;52.83
69855;BME280;57146;48.140;16.304;2022-07-17T05:41:21;100283.09;;;17.83;52.82
69855;BME280;57146;48.140;16.304;2022-07-17T05:43:48;100282.56;;;17.90;51.94
69855;BME280;57146;48.140;16.304;2022-07-17T05:46:14;100275.16;;;17.95;52.09
69855;BME280;57146;48.140;16.304;2022-07-17T05:48:41;100280.88;;;18.06;51.84
69855;BME280;57146;48.140;16.304;2022-07-17T05:51:08;100281.25;;;18.17;52.91
69855;BME280;57146;48.140;16.304;2022-07-17T05:53:38;100276.00;;;18.29;53.35
69855;BME280;57146;48.140;16.304;2022-07-17T05:56:05;100274.94;;;18.42;52.67
69855;BME280;57146;48.140;16.304;2022-07-17T05:58:32;100282.34;;;18.58;51.52
69855;BME280;57146;48.140;16.304;2022-07-17T06:00:59;100280.97;;;18.73;51.46
69855;BME280;57146;48.140;16.304;2022-07-17T06:03:26;100287.44;;;18.84;52.34
69855;BME280;57146;48.140;16.304;2022-07-17T06:05:52;100282.16;;;18.96;50.43
69855;BME280;57146;48.140;16.304;2022-07-17T06:08:19;100286.25;;;18.94;49.79
69855;BME280;57146;48.140;16.304;2022-07-17T06:10:46;100286.59;;;19.04;49.02
69855;BME280;57146;48.140;16.304;2022-07-17T06:13:13;100296.63;;;19.07;48.70
69855;BME280;57146;48.140;16.304;2022-07-17T06:15:40;100290.94;;;19.09;49.16
69855;BME280;57146;48.140;16.304;2022-07-17T06:18:07;100297.38;;;19.20;50.27
69855;BME280;57146;48.140;16.304;2022-07-17T06:20:34;100300.63;;;19.26;49.13
69855;BME280;57146;48.140;16.304;2022-07-17T06:23:01;100296.75;;;19.35;48.64
69855;BME280;57146;48.140;16.304;2022-07-17T06:25:28;100302.19;;;19.39;47.24
69855;BME280;57146;48.140;16.304;2022-07-17T06:27:55;100295.41;;;19.42;46.38
69855;BME280;57146;48.140;16.304;2022-07-17T06:30:22;100308.97;;;19.36;46.57
69855;BME280;57146;48.140;16.304;2022-07-17T06:32:49;100299.41;;;19.48;46.28
69855;BME280;57146;48.140;16.304;2022-07-17T06:35:16;100293.72;;;19.49;45.33
69855;BME280;57146;48.140;16.304;2022-07-17T06:37:43;100300.28;;;19.52;46.27
69855;BME280;57146;48.140;16.304;2022-07-17T06:40:09;100303.84;;;19.56;46.01
69855;BME280;57146;48.140;16.304;2022-07-17T06:42:36;100302.53;;;19.62;45.89
69855;BME280;57146;48.140;16.304;2022-07-17T06:45:03;100301.53;;;19.67;45.57
69855;BME280;57146;48.140;16.304;2022-07-17T06:47:30;100309.97;;;19.81;44.58
69855;BME280;57146;48.140;16.304;2022-07-17T06:49:57;100309.22;;;19.93;43.05
69855;BME280;57146;48.140;16.304;2022-07-17T06:52:24;100297.59;;;20.01;42.29
69855;BME280;57146;48.140;16.304;2022-07-17T06:54:56;100302.03;;;20.09;42.12
69855;BME280;57146;48.140;16.304;2022-07-17T06:57:23;100303.09;;;20.20;39.55
69855;BME280;57146;48.140;16.304;2022-07-17T06:59:50;100310.03;;;20.21;39.42
69855;BME280;57146;48.140;16.304;2022-07-17T07:02:17;100305.88;;;20.24;39.13
69855;BME280;57146;48.140;16.304;2022-07-17T07:04:44;100300.22;;;20.25;39.04
69855;BME280;57146;48.140;16.304;2022-07-17T07:07:11;100306.19;;;20.34;40.75
69855;BME280;57146;48.140;16.304;2022-07-17T07:09:38;100304.16;;;20.44;39.94
69855;BME280;57146;48.140;16.304;2022-07-17T07:12:05;100303.91;;;20.49;38.86
69855;BME280;57146;48.140;16.304;2022-07-17T07:14:32;100307.16;;;20.54;38.70
69855;BME280;57146;48.140;16.304;2022-07-17T07:16:59;100305.09;;;20.64;40.05
69855;BME280;57146;48.140;16.304;2022-07-17T07:19:26;100297.47;;;20.78;38.11
69855;BME280;57146;48.140;16.304;2022-07-17T07:21:53;100299.59;;;20.88;38.42
69855;BME280;57146;48.140;16.304;2022-07-17T07:24:20;100305.25;;;20.99;39.01
69855;BME280;57146;48.140;16.304;2022-07-17T07:26:46;100296.28;;;21.07;38.14
69855;BME280;57146;48.140;16.304;2022-07-17T07:29:14;100297.75;;;21.20;37.51
69855;BME280;57146;48.140;16.304;2022-07-17T07:31:43;100300.16;;;21.10;37.15
69855;BME280;57146;48.140;16.304;2022-07-17T07:34:10;100299.03;;;21.11;36.54
69855;BME280;57146;48.140;16.304;2022-07-17T07:36:37;100304.91;;;21.00;35.77
69855;BME280;57146;48.140;16.304;2022-07-17T07:39:04;100305.94;;;20.96;36.06
69855;BME280;57146;48.140;16.304;2022-07-17T07:41:31;100309.81;;;20.98;36.39
69855;BME280;57146;48.140;16.304;2022-07-17T07:43:57;100296.94;;;21.04;36.53
69855;BME280;57146;48.140;16.304;2022-07-17T07:46:24;100303.75;;;21.01;36.47
69855;BME280;57146;48.140;16.304;2022-07-17T07:48:52;100304.22;;;21.03;37.65
69855;BME280;57146;48.140;16.304;2022-07-17T07:51:19;100304.81;;;21.13;36.38
69855;BME280;57146;48.140;16.304;2022-07-17T07:54:06;100310.34;;;21.04;36.20
69855;BME280;57146;48.140;16.304;2022-07-17T07:56:33;100313.38;;;21.02;36.49
69855;BME280;57146;48.140;16.304;2022-07-17T07:59:00;100308.97;;;21.10;35.75
69855;BME280;57146;48.140;16.304;2022-07-17T08:01:27;100303.16;;;21.08;36.01
69855;BME280;57146;48.140;16.304;2022-07-17T08:03:54;100303.25;;;21.12;36.29
69855;BME280;57146;48.140;16.304;2022-07-17T08:06:21;100306.88;;;21.19;37.23
69855;BME280;57146;48.140;16.304;2022-07-17T08:08:48;100314.66;;;21.24;36.11
69855;BME280;57146;48.140;16.304;2022-07-17T08:11:15;100312.06;;;21.28;36.30
69855;BME280;57146;48.140;16.304;2022-07-17T08:13:42;100305.44;;;21.38;35.32
69855;BME280;57146;48.140;16.304;2022-07-17T08:16:08;100314.59;;;21.37;36.64
69855;BME280;57146;48.140;16.304;2022-07-17T08:18:35;100318.75;;;21.50;35.57
69855;BME280;57146;48.140;16.304;2022-07-17T08:21:02;100317.00;;;21.58;36.23
69855;BME280;57146;48.140;16.304;2022-07-17T08:23:29;100314.84;;;21.63;36.17
69855;BME280;57146;48.140;16.304;2022-07-17T08:25:56;100316.38;;;21.64;35.81
69855;BME280;57146;48.140;16.304;2022-07-17T08:28:23;100312.41;;;21.58;35.79
69855;BME280;57146;48.140;16.304;2022-07-17T08:30:50;100316.91;;;21.54;35.28
69855;BME280;57146;48.140;16.304;2022-07-17T08:33:17;100316.31;;;21.45;35.86
69855;BME280;57146;48.140;16.304;2022-07-17T08:35:44;100314.69;;;21.56;36.45
69855;BME280;57146;48.140;16.304;2022-07-17T08:38:12;100310.41;;;21.71;36.55
69855;BME280;57146;48.140;16.304;2022-07-17T08:40:40;100312.63;;;21.85;36.41
69855;BME280;57146;48.140;16.304;2022-07-17T08:43:07;100317.09;;;21.96;36.60
69855;BME280;57146;48.140;16.304;2022-07-17T08:45:37;100312.66;;;22.04;36.17
69855;BME280;57146;48.140;16.304;2022-07-17T08:48:14;100317.19;;;22.19;36.74
69855;BME280;57146;48.140;16.304;2022-07-17T08:50:42;100319.63;;;22.25;35.44
69855;BME280;57146;48.140;16.304;2022-07-17T08:53:09;100312.47;;;22.13;35.25
69855;BME280;57146;48.140;16.304;2022-07-17T08:55:36;100317.59;;;22.02;35.09
69855;BME280;57146;48.140;16.304;2022-07-17T08:58:03;100316.09;;;22.05;35.04
69855;BME280;57146;48.140;16.304;2022-07-17T09:00:30;100305.69;;;22.19;37.00
69855;BME280;57146;48.140;16.304;2022-07-17T09:05:32;100299.78;;;22.29;35.06
69855;BME280;57146;48.140;16.304;2022-07-17T09:08:00;100310.34;;;22.22;35.17
69855;BME280;57146;48.140;16.304;2022-07-17T09:10:41;100295.81;;;22.23;35.46
69855;BME280;57146;48.140;16.304;2022-07-17T09:13:19;100303.81;;;22.39;35.70
69855;BME280;57146;48.140;16.304;2022-07-17T09:15:49;100298.00;;;22.56;35.24
69855;BME280;57146;48.140;16.304;2022-07-17T09:18:17;100298.13;;;22.63;35.34
69855;BME280;57146;48.140;16.304;2022-07-17T09:20:50;100299.09;;;22.75;35.50
69855;BME280;57146;48.140;16.304;2022-07-17T09:23:21;100298.13;;;22.86;34.06
69855;BME280;57146;48.140;16.304;2022-07-17T09:25:54;100296.09;;;22.80;33.32
69855;BME280;57146;48.140;16.304;2022-07-17T09:28:22;100293.88;;;22.62;33.84
69855;BME280;57146;48.140;16.304;2022-07-17T09:30:52;100297.44;;;22.66;34.32
69855;BME280;57146;48.140;16.304;2022-07-17T09:33:26;100294.69;;;22.86;34.07
69855;BME280;57146;48.140;16.304;2022-07-17T09:36:05;100299.75;;;22.91;34.35
69855;BME280;57146;48.140;16.304;2022-07-17T09:38:36;100293.09;;;22.81;33.78
69855;BME280;57146;48.140;16.304;2022-07-17T09:41:12;100291.16;;;22.82;34.06
69855;BME280;57146;48.140;16.304;2022-07-17T09:43:44;100286.78;;;22.93;34.07
69855;BME280;57146;48.140;16.304;2022-07-17T09:46:15;100276.59;;;23.02;34.01
69855;BME280;57146;48.140;16.304;2022-07-17T09:48:45;100280.09;;;23.06;33.59
69855;BME280;57146;48.140;16.304;2022-07-17T09:51:15;100284.28;;;23.04;32.75
69855;BME280;57146;48.140;16.304;2022-07-17T09:53:45;100282.66;;;22.99;33.11
69855;BME280;57146;48.140;16.304;2022-07-17T09:56:15;100265.47;;;23.04;31.71
69855;BME280;57146;48.140;16.304;2022-07-17T09:58:45;100272.78;;;22.84;32.06
69855;BME280;57146;48.140;16.304;2022-07-17T10:01:15;100281.13;;;22.79;33.01
69855;BME280;57146;48.140;16.304;2022-07-17T10:03:43;100273.22;;;22.86;33.77
69855;BME280;57146;48.140;16.304;2022-07-17T10:06:11;100268.75;;;22.93;33.59
69855;BME280;57146;48.140;16.304;2022-07-17T10:08:38;100269.59;;;22.98;33.20
69855;BME280;57146;48.140;16.304;2022-07-17T10:11:07;100276.88;;;22.97;32.42
69855;BME280;57146;48.140;16.304;2022-07-17T10:13:41;100275.44;;;23.03;32.67
69855;BME280;57146;48.140;16.304;2022-07-17T10:16:09;100269.09;;;23.15;33.84
69855;BME280;57146;48.140;16.304;2022-07-17T10:18:38;100265.53;;;23.30;34.12
69855;BME280;57146;48.140;16.304;2022-07-17T10:21:16;100266.41;;;23.38;32.85
69855;BME280;57146;48.140;16.304;2022-07-17T10:24:08;100259.06;;;23.35;32.46
69855;BME280;57146;48.140;16.304;2022-07-17T10:26:40;100267.16;;;23.38;32.85
69855;BME280;57146;48.140;16.304;2022-07-17T10:29:26;100275.38;;;23.49;32.77
69855;BME280;57146;48.140;16.304;2022-07-17T10:31:53;100265.69;;;23.41;32.60
69855;BME280;57146;48.140;16.304;2022-07-17T10:34:59;100265.03;;;23.51;32.94
69855;BME280;57146;48.140;16.304;2022-07-17T10:45:16;100252.41;;;23.52;32.00
69855;BME280;57146;48.140;16.304;2022-07-17T10:50:39;100267.03;;;23.58;32.04
69855;BME280;57146;48.140;16.304;2022-07-17T10:53:19;100254.97;;;23.45;32.13
69855;BME280;57146;48.140;16.304;2022-07-17T10:56:07;100254.31;;;23.55;31.97
69855;BME280;57146;48.140;16.304;2022-07-17T10:58:39;100246.25;;;23.55;32.13
69855;BME280;57146;48.140;16.304;2022-07-17T11:01:17;100234.75;;;23.54;31.63
69855;BME280;57146;48.140;16.304;2022-07-17T11:03:47;100242.91;;;23.61;32.38
69855;BME280;57146;48.140;16.304;2022-07-17T11:06:18;100235.94;;;23.57;31.74
69855;BME280;57146;48.140;16.304;2022-07-17T11:11:23;100231.84;;;23.97;31.33
69855;BME280;57146;48.140;16.304;2022-07-17T11:14:10;100222.00;;;23.74;30.60
69855;BME280;57146;48.140;16.304;2022-07-17T11:16:50;100229.38;;;23.81;30.55
69855;BME280;57146;48.140;16.304;2022-07-17T11:19:29;100228.03;;;23.68;30.87
69855;BME280;57146;48.140;16.304;2022-07-17T11:21:58;100215.03;;;23.70;30.79
69855;BME280;57146;48.140;16.304;2022-07-17T11:24:38;100225.97;;;23.84;30.88
69855;BME280;57146;48.140;16.304;2022-07-17T11:27:05;100223.13;;;23.73;31.64
69855;BME280;57146;48.140;16.304;2022-07-17T11:29:38;100217.72;;;23.70;30.72
69855;BME280;57146;48.140;16.304;2022-07-17T11:32:06;100221.91;;;23.67;30.98
69855;BME280;57146;48.140;16.304;2022-07-17T11:34:33;100226.34;;;23.86;30.63
69855;BME280;57146;48.140;16.304;2022-07-17T11:37:02;100217.22;;;23.94;30.23
69855;BME280;57146;48.140;16.304;2022-07-17T11:39:46;100223.19;;;24.10;30.30
69855;BME280;57146;48.140;16.304;2022-07-17T11:42:18;100216.56;;;24.04;29.15
69855;BME280;57146;48.140;16.304;2022-07-17T11:44:51;100224.28;;;24.06;29.28
69855;BME280;57146;48.140;16.304;2022-07-17T11:47:26;100215.75;;;24.00;29.13
69855;BME280;57146;48.140;16.304;2022-07-17T11:50:10;100210.38;;;24.00;29.62
69855;BME280;57146;48.140;16.304;2022-07-17T11:52:47;100204.81;;;24.16;29.62
69855;BME280;57146;48.140;16.304;2022-07-17T11:55:16;100195.63;;;24.21;30.99
69855;BME280;57146;48.140;16.304;2022-07-17T11:57:47;100204.56;;;24.32;30.66
69855;BME280;57146;48.140;16.304;2022-07-17T12:00:17;100187.81;;;24.46;29.40
69855;BME280;57146;48.140;16.304;2022-07-17T12:02:45;100190.47;;;24.42;29.98
69855;BME280;57146;48.140;16.304;2022-07-17T12:05:12;100183.78;;;24.29;29.23
69855;BME280;57146;48.140;16.304;2022-07-17T12:07:42;100173.06;;;24.32;29.10
69855;BME280;57146;48.140;16.304;2022-07-17T12:10:18;100179.97;;;24.30;28.95
69855;BME280;57146;48.140;16.304;2022-07-17T12:12:52;100179.19;;;24.33;28.71
69855;BME280;57146;48.140;16.304;2022-07-17T12:15:20;100165.53;;;24.45;28.75
69855;BME280;57146;48.140;16.304;2022-07-17T12:17:47;100169.09;;;24.60;28.85
69855;BME280;57146;48.140;16.304;2022-07-17T12:20:14;100167.50;;;24.52;28.53
69855;BME280;57146;48.140;16.304;2022-07-17T12:22:48;100169.91;;;24.64;27.93
69855;BME280;57146;48.140;16.304;2022-07-17T12:25:26;100167.88;;;24.54;26.75
69855;BME280;57146;48.140;16.304;2022-07-17T12:27:54;100161.69;;;24.46;28.34
69855;BME280;57146;48.140;16.304;2022-07-17T12:30:21;100163.31;;;24.58;28.09
69855;BME280;57146;48.140;16.304;2022-07-17T12:32:49;100162.63;;;24.72;27.23
69855;BME280;57146;48.140;16.304;2022-07-17T12:35:16;100178.72;;;24.61;27.55
69855;BME280;57146;48.140;16.304;2022-07-17T12:37:43;100170.63;;;24.61;27.36
69855;BME280;57146;48.140;16.304;2022-07-17T12:40:10;100171.81;;;24.64;27.28
69855;BME280;57146;48.140;16.304;2022-07-17T12:42:42;100171.19;;;24.81;28.02
69855;BME280;57146;48.140;16.304;2022-07-17T12:45:10;100162.38;;;24.84;27.96
69855;BME280;57146;48.140;16.304;2022-07-17T12:47:37;100163.44;;;24.76;28.22
69855;BME280;57146;48.140;16.304;2022-07-17T12:50:04;100159.19;;;24.71;29.29
69855;BME280;57146;48.140;16.304;2022-07-17T12:52:31;100164.97;;;24.73;27.74
69855;BME280;57146;48.140;16.304;2022-07-17T12:54:58;100159.19;;;24.71;27.33
69855;BME280;57146;48.140;16.304;2022-07-17T12:57:25;100158.41;;;24.71;27.96
69855;BME280;57146;48.140;16.304;2022-07-17T12:59:52;100150.34;;;24.71;27.79
69855;BME280;57146;48.140;16.304;2022-07-17T13:02:19;100163.81;;;24.74;28.27
69855;BME280;57146;48.140;16.304;2022-07-17T13:04:46;100154.94;;;24.70;27.43